Terminal Aerodrome Forecast
Issued by NWS Mt. Holly, NJ

Home | Current Version | Previous Version | Text Only | Print | Product List | Glossary On
Versions: 1 2 3 4 5 6 7 8 9 10 11 12 13 14 15 16 17 18 19 20 21 22 23
000
FTUS41 KPHI 281004 AAB
TAFRDG
TAF AMD
KRDG 281004Z 2810/2906 00000KT 4SM BR SCT030
      TEMPO 2810/2812 1SM BR BKN010
     FM281200 VRB02KT P6SM SCT030
     FM281600 25004KT P6SM SCT035
     FM282300 20006KT P6SM SCT040
     FM290100 VRB02KT P6SM FEW035 SCT250=

USA.gov is the U.S. government's official web portal to all federal, state and local government web resources and services.